Time;durP1;ratioP1;P1;durP2;ratioP2;P2;SDS_P1;SDS_P2;PMS_P1;PMS_P2;Temp;Humidity;BMP_temperature;BMP_pressure;BME280_temperature;BME280_humidity;BME280_pressure;Samples;Min_cycle;Max_cycle;Signal;HPM_P1;HPM_P2
2022/03/04 00:01:22;;;;;;;;;130.50;120.25;7.70;39.30;;;;;;4918210;29;8799;-69
2022/03/04 00:03:48;;;;;;;;;126.25;109.50;6.80;41.10;;;;;;4918102;29;8902;-70
2022/03/04 00:06:14;;;;;;;;;128.00;117.50;6.40;42.40;;;;;;4918119;29;8764;-70
2022/03/04 00:08:40;;;;;;;;;125.50;114.25;6.50;42.70;;;;;;4917360;29;8926;-70
2022/03/04 00:11:07;;;;;;;;;124.75;114.50;6.20;42.50;;;;;;4917511;29;8795;-70
2022/03/04 00:13:33;;;;;;;;;124.00;111.75;6.00;43.50;;;;;;4918283;29;8795;-71
2022/03/04 00:15:59;;;;;;;;;114.75;102.25;5.80;44.30;;;;;;4917827;29;8898;-70
2022/03/04 00:18:26;;;;;;;;;120.75;99.75;5.50;44.80;;;;;;4917514;29;8910;-68
2022/03/04 00:20:52;;;;;;;;;121.75;107.75;5.50;45.60;;;;;;4917723;29;8803;-69
2022/03/04 00:23:18;;;;;;;;;111.50;106.75;5.90;44.70;;;;;;4918071;29;8812;-69
2022/03/04 00:25:45;;;;;;;;;108.50;95.25;6.60;43.40;;;;;;4918327;29;8851;-69
2022/03/04 00:28:11;;;;;;;;;108.50;93.25;7.20;41.80;;;;;;4917611;29;8850;-68
2022/03/04 00:30:36;;;;;;;;;103.00;95.50;7.00;41.20;;;;;;4918089;29;8795;-69
2022/03/04 00:33:02;;;;;;;;;108.75;97.50;7.10;41.80;;;;;;4918045;29;8799;-70
2022/03/04 00:35:28;;;;;;;;;111.50;103.50;7.20;41.50;;;;;;4917735;29;8834;-70
2022/03/04 00:37:54;;;;;;;;;123.00;110.00;7.10;42.00;;;;;;4917925;29;8804;-70
2022/03/04 00:40:19;;;;;;;;;109.00;101.00;7.40;41.00;;;;;;4918193;29;8791;-69
2022/03/04 00:42:46;;;;;;;;;116.50;106.75;7.30;41.30;;;;;;4918243;29;8834;-69
2022/03/04 00:45:12;;;;;;;;;106.25;98.50;7.60;40.90;;;;;;4917905;29;9458;-69
2022/03/04 00:47:38;;;;;;;;;120.50;108.00;8.00;39.80;;;;;;4901089;29;8838;-69
2022/03/04 00:50:06;;;;;;;;;107.00;98.75;8.00;39.80;;;;;;4917881;29;8764;-71
2022/03/04 00:52:32;;;;;;;;;118.25;108.00;7.60;40.00;;;;;;4918186;29;9489;-69
2022/03/04 00:54:57;;;;;;;;;108.75;100.50;7.60;40.80;;;;;;4917888;29;8784;-69
2022/03/04 00:57:23;;;;;;;;;115.00;107.00;7.60;40.10;;;;;;4917846;29;8846;-69
2022/03/04 00:59:49;;;;;;;;;119.50;109.75;7.50;40.90;;;;;;4918151;29;8776;-69
2022/03/04 01:02:15;;;;;;;;;119.00;102.75;7.50;41.00;;;;;;4919197;29;9457;-70
2022/03/04 01:04:40;;;;;;;;;119.50;102.00;7.80;40.60;;;;;;4921576;29;8771;-69
2022/03/04 01:07:07;;;;;;;;;119.50;111.50;7.00;42.00;;;;;;4921357;29;8831;-70
2022/03/04 01:09:33;;;;;;;;;118.75;105.50;7.10;42.60;;;;;;4920578;29;8847;-68
2022/03/04 01:11:59;;;;;;;;;100.25;84.25;7.60;41.20;;;;;;4921392;29;8803;-68
2022/03/04 01:14:24;;;;;;;;;108.00;92.75;7.00;41.80;;;;;;4921438;29;8811;-68
2022/03/04 01:16:50;;;;;;;;;117.75;102.25;6.50;43.00;;;;;;4920936;29;9470;-69
2022/03/04 01:19:16;;;;;;;;;112.25;99.50;6.50;43.70;;;;;;4921345;29;8783;-68
2022/03/04 01:21:42;;;;;;;;;107.75;100.25;6.10;44.40;;;;;;4921142;29;8779;-68
2022/03/04 01:24:08;;;;;;;;;112.50;102.00;6.30;44.50;;;;;;4921339;29;8796;-67
2022/03/04 01:26:34;;;;;;;;;112.00;103.50;6.80;43.90;;;;;;4921290;29;8831;-68
2022/03/04 01:29:00;;;;;;;;;116.00;105.50;7.40;42.30;;;;;;4919529;29;8796;-69
2022/03/04 01:31:26;;;;;;;;;110.75;105.75;7.40;42.10;;;;;;4920711;29;8791;-69
2022/03/04 01:33:51;;;;;;;;;115.00;96.75;7.70;41.30;;;;;;4921251;29;8866;-69
2022/03/04 01:36:17;;;;;;;;;111.25;104.75;7.90;40.70;;;;;;4921053;29;8791;-68
2022/03/04 01:38:43;;;;;;;;;123.25;111.25;7.70;41.10;;;;;;4920927;29;8787;-70
2022/03/04 01:41:10;;;;;;;;;132.00;112.25;7.70;41.10;;;;;;4920962;29;8790;-69
2022/03/04 01:43:35;;;;;;;;;119.25;110.25;7.80;41.30;;;;;;4921021;29;8787;-69
2022/03/04 01:46:15;;;;;;;;;104.00;94.50;8.00;40.50;;;;;;4920811;29;9441;-69
2022/03/04 01:48:43;;;;;;;;;103.00;95.50;8.10;40.00;;;;;;4920879;29;8811;-68
2022/03/04 01:51:10;;;;;;;;;100.50;89.75;7.60;40.80;;;;;;4920703;29;8810;-70
2022/03/04 01:53:37;;;;;;;;;108.50;92.75;6.80;42.70;;;;;;4920883;29;9469;-68
2022/03/04 01:56:03;;;;;;;;;104.00;88.00;6.40;44.30;;;;;;4920621;29;8792;-69
2022/03/04 01:58:29;;;;;;;;;105.75;90.75;6.60;43.40;;;;;;4920584;29;8910;-69
2022/03/04 02:00:55;;;;;;;;;102.75;90.25;6.50;44.00;;;;;;4920515;29;8796;-69
2022/03/04 02:03:20;;;;;;;;;98.50;85.50;6.60;43.80;;;;;;4920769;29;8792;-69
2022/03/04 02:05:46;;;;;;;;;106.25;93.00;7.00;42.60;;;;;;4920651;29;8806;-70
2022/03/04 02:08:12;;;;;;;;;98.25;85.00;7.20;42.60;;;;;;4920430;29;8945;-68
2022/03/04 02:10:38;;;;;;;;;100.50;83.75;6.60;43.10;;;;;;4920351;29;9423;-68
2022/03/04 02:13:04;;;;;;;;;99.00;81.50;6.70;43.30;;;;;;4920536;29;8793;-68
2022/03/04 02:15:30;;;;;;;;;93.50;76.50;7.20;42.40;;;;;;4920536;29;8826;-68
2022/03/04 02:17:56;;;;;;;;;77.25;62.25;6.90;42.80;;;;;;4920516;29;8795;-68
2022/03/04 02:20:22;;;;;;;;;98.00;82.50;6.60;43.30;;;;;;4920397;29;8818;-67
2022/03/04 02:22:51;;;;;;;;;97.75;77.00;6.30;44.00;;;;;;4920442;29;8795;-68
2022/03/04 02:25:17;;;;;;;;;98.75;80.00;5.80;45.20;;;;;;4920105;29;8788;-68
2022/03/04 02:27:43;;;;;;;;;97.50;78.25;6.20;45.00;;;;;;4919997;29;8823;-68
2022/03/04 02:30:09;;;;;;;;;94.75;79.50;6.20;45.00;;;;;;4920001;29;8790;-69
2022/03/04 02:32:35;;;;;;;;;100.50;78.50;5.90;45.90;;;;;;4919854;29;8772;-68
2022/03/04 02:35:01;;;;;;;;;98.50;84.00;5.80;46.00;;;;;;4920009;29;8790;-68
2022/03/04 02:37:27;;;;;;;;;93.25;74.00;6.10;46.20;;;;;;4919933;29;8794;-68
2022/03/04 02:39:53;;;;;;;;;98.25;77.25;5.80;46.30;;;;;;4919904;29;8784;-68
2022/03/04 02:42:19;;;;;;;;;100.50;84.00;5.60;47.20;;;;;;4919782;29;8791;-69
2022/03/04 02:44:44;;;;;;;;;88.75;70.00;6.00;46.60;;;;;;4920067;29;8827;-69
2022/03/04 02:47:10;;;;;;;;;95.50;76.00;6.40;45.50;;;;;;4919621;29;8937;-68
2022/03/04 02:49:36;;;;;;;;;92.75;73.00;6.10;45.80;;;;;;4919686;29;8792;-68
2022/03/04 02:52:02;;;;;;;;;91.00;73.00;6.50;46.10;;;;;;4919613;29;8787;-68
2022/03/04 02:54:28;;;;;;;;;100.00;80.75;6.40;44.60;;;;;;4919846;29;8787;-68
2022/03/04 02:56:54;;;;;;;;;90.00;70.00;6.30;45.70;;;;;;4919888;29;8818;-68
2022/03/04 02:59:19;;;;;;;;;96.25;75.00;6.70;44.50;;;;;;4920014;29;8810;-68
2022/03/04 03:01:45;;;;;;;;;91.50;72.00;6.60;44.30;;;;;;4919627;29;8822;-68
2022/03/04 03:04:11;;;;;;;;;94.00;73.50;6.60;44.50;;;;;;4919663;29;8802;-68
2022/03/04 03:06:37;;;;;;;;;91.50;71.75;6.90;43.90;;;;;;4919303;29;8823;-68
2022/03/04 03:09:03;;;;;;;;;93.75;74.25;7.10;43.60;;;;;;4919130;29;8894;-68
2022/03/04 03:11:29;;;;;;;;;94.25;75.75;7.30;42.80;;;;;;4919313;29;8776;-69
2022/03/04 03:13:55;;;;;;;;;94.75;79.25;7.20;42.30;;;;;;4919483;29;8835;-69
2022/03/04 03:16:21;;;;;;;;;95.75;77.00;7.30;42.50;;;;;;4919168;29;8780;-68
2022/03/04 03:18:47;;;;;;;;;91.50;74.00;7.30;42.10;;;;;;4919351;29;8864;-68
2022/03/04 03:21:13;;;;;;;;;94.50;77.00;7.10;42.00;;;;;;4919345;29;8883;-68
2022/03/04 03:23:39;;;;;;;;;87.25;69.25;7.00;43.20;;;;;;4919343;29;8799;-68
2022/03/04 03:26:04;;;;;;;;;91.00;71.50;7.40;42.50;;;;;;4918521;29;8795;-68
2022/03/04 03:28:30;;;;;;;;;92.00;70.25;6.40;43.70;;;;;;4918925;29;8811;-67
2022/03/04 03:30:56;;;;;;;;;92.00;75.25;6.20;44.90;;;;;;4918924;29;8795;-69
2022/03/04 03:33:22;;;;;;;;;91.25;71.75;6.20;44.70;;;;;;4918910;29;8794;-68
2022/03/04 03:35:48;;;;;;;;;95.50;77.00;6.20;44.50;;;;;;4918821;29;8775;-68
2022/03/04 03:38:14;;;;;;;;;94.75;75.75;6.40;44.10;;;;;;4918828;29;8783;-68
2022/03/04 03:40:40;;;;;;;;;91.25;71.75;6.40;43.90;;;;;;4918738;29;8802;-68
2022/03/04 03:43:06;;;;;;;;;95.50;76.50;6.50;43.90;;;;;;4918721;29;8803;-68
2022/03/04 03:45:32;;;;;;;;;79.75;61.25;6.70;43.20;;;;;;4919105;29;8815;-68
2022/03/04 03:47:58;;;;;;;;;96.25;79.00;6.10;44.20;;;;;;4918591;29;8900;-68
2022/03/04 03:50:23;;;;;;;;;94.00;75.75;6.10;44.40;;;;;;4918632;29;8792;-68
2022/03/04 03:52:49;;;;;;;;;90.00;69.25;5.90;44.50;;;;;;4918790;29;8854;-68
2022/03/04 03:55:15;;;;;;;;;92.25;72.00;5.60;45.50;;;;;;4918840;29;9426;-69
2022/03/04 03:57:41;;;;;;;;;87.75;69.25;5.70;45.60;;;;;;4918713;29;9442;-68
2022/03/04 04:00:07;;;;;;;;;88.25;68.25;5.50;45.30;;;;;;4918691;29;8866;-67
2022/03/04 04:02:32;;;;;;;;;90.00;69.25;5.10;45.80;;;;;;4918650;29;8783;-67
2022/03/04 04:04:58;;;;;;;;;90.50;69.75;5.10;46.30;;;;;;4918388;29;8904;-68
2022/03/04 04:07:24;;;;;;;;;87.75;71.50;5.00;47.20;;;;;;4918227;29;8928;-67
2022/03/04 04:09:50;;;;;;;;;91.50;67.50;5.50;46.30;;;;;;4918218;29;8807;-67
2022/03/04 04:12:15;;;;;;;;;95.00;80.25;5.80;45.70;;;;;;4918459;29;8803;-69
2022/03/04 04:14:41;;;;;;;;;92.75;72.50;6.40;44.80;;;;;;4918518;29;8921;-68
2022/03/04 04:17:07;;;;;;;;;98.75;81.00;6.60;43.70;;;;;;4918305;29;8862;-69
2022/03/04 04:19:33;;;;;;;;;99.25;81.50;7.00;42.80;;;;;;4918481;29;8810;-68
2022/03/04 04:21:58;;;;;;;;;93.50;76.75;7.30;42.10;;;;;;4918055;29;8795;-68
2022/03/04 04:24:24;;;;;;;;;90.25;71.25;7.40;41.80;;;;;;4918093;29;8787;-67
2022/03/04 04:26:50;;;;;;;;;82.00;64.50;7.60;41.30;;;;;;4918341;29;8815;-68
2022/03/04 04:29:16;;;;;;;;;84.25;69.25;7.50;41.30;;;;;;4918069;29;9429;-67
2022/03/04 04:31:42;;;;;;;;;94.00;72.75;7.60;41.10;;;;;;4918112;29;8771;-68
2022/03/04 04:34:08;;;;;;;;;96.25;79.00;7.70;40.70;;;;;;4918020;29;8779;-68
2022/03/04 04:36:34;;;;;;;;;99.75;79.00;7.70;40.60;;;;;;4917397;29;8771;-68
2022/03/04 04:39:00;;;;;;;;;92.75;73.00;7.80;40.30;;;;;;4917826;29;8841;-68
2022/03/04 04:41:26;;;;;;;;;88.50;69.00;7.70;40.10;;;;;;4918063;29;8849;-70
2022/03/04 04:43:52;;;;;;;;;76.75;62.50;7.50;41.20;;;;;;4918041;29;8831;-69
2022/03/04 04:46:18;;;;;;;;;86.00;66.75;6.10;42.40;;;;;;4917951;29;8776;-68
2022/03/04 04:48:44;;;;;;;;;86.00;67.25;6.10;43.70;;;;;;4917922;29;8797;-68
2022/03/04 04:51:10;;;;;;;;;83.25;65.75;5.50;45.20;;;;;;4917852;29;8897;-69
2022/03/04 04:53:36;;;;;;;;;78.75;62.50;5.60;45.20;;;;;;4918074;29;8803;-67
2022/03/04 04:56:03;;;;;;;;;77.00;59.50;5.80;44.70;;;;;;4918147;29;8795;-68
2022/03/04 04:58:28;;;;;;;;;72.50;59.00;6.00;44.30;;;;;;4917823;29;8806;-68
2022/03/04 05:00:54;;;;;;;;;79.00;63.50;5.40;45.20;;;;;;4917789;29;8772;-68
2022/03/04 05:03:24;;;;;;;;;78.50;62.00;4.80;46.90;;;;;;4918055;29;8783;-68
2022/03/04 05:05:51;;;;;;;;;76.00;60.25;4.50;47.90;;;;;;4918225;29;8771;-69
2022/03/04 05:08:18;;;;;;;;;77.25;62.25;4.30;47.90;;;;;;4917507;29;9607;-68
2022/03/04 05:10:44;;;;;;;;;83.50;66.75;4.70;48.10;;;;;;4917759;29;8767;-68
2022/03/04 05:13:11;;;;;;;;;87.00;69.50;4.70;47.90;;;;;;4917719;29;8890;-69
2022/03/04 05:15:37;;;;;;;;;84.00;67.00;5.00;47.40;;;;;;4918093;29;8799;-69
2022/03/04 05:18:03;;;;;;;;;89.00;69.00;5.40;46.10;;;;;;4917914;29;9480;-69
2022/03/04 05:20:29;;;;;;;;;87.25;70.75;5.50;45.90;;;;;;4917901;29;8806;-68
2022/03/04 05:22:54;;;;;;;;;91.75;71.25;5.50;45.90;;;;;;4917681;29;8795;-67
2022/03/04 05:25:20;;;;;;;;;85.50;67.00;5.00;47.10;;;;;;4917893;29;8802;-68
2022/03/04 05:27:46;;;;;;;;;88.00;68.50;5.40;46.40;;;;;;4917628;29;8827;-69
2022/03/04 05:30:13;;;;;;;;;83.50;65.00;5.10;46.80;;;;;;4917703;29;8803;-68
2022/03/04 05:32:39;;;;;;;;;84.75;70.00;5.20;46.70;;;;;;4917785;29;9442;-68
2022/03/04 05:35:05;;;;;;;;;94.00;73.25;5.20;46.80;;;;;;4917819;29;8854;-68
2022/03/04 05:37:31;;;;;;;;;95.25;77.25;4.70;47.60;;;;;;4917446;29;8795;-69
2022/03/04 05:39:57;;;;;;;;;92.75;72.75;4.50;48.80;;;;;;4916486;29;8822;-70
2022/03/04 05:42:23;;;;;;;;;92.75;73.50;4.20;49.20;;;;;;4900853;29;8779;-69
2022/03/04 05:44:49;;;;;;;;;94.00;74.50;4.40;49.50;;;;;;4917504;29;8823;-69
2022/03/04 05:47:14;;;;;;;;;96.50;73.25;4.40;49.00;;;;;;4917163;29;8839;-67
2022/03/04 05:49:40;;;;;;;;;94.00;73.00;4.90;48.20;;;;;;4920565;29;8779;-69
2022/03/04 05:52:06;;;;;;;;;93.25;78.50;5.10;46.90;;;;;;4920486;29;8838;-68
2022/03/04 05:54:32;;;;;;;;;94.25;73.75;5.10;46.90;;;;;;4919343;29;8799;-69
2022/03/04 05:56:58;;;;;;;;;90.50;73.00;5.10;46.90;;;;;;4920361;29;8791;-68
2022/03/04 05:59:24;;;;;;;;;91.75;71.50;4.90;47.00;;;;;;4920936;29;8791;-69
2022/03/04 06:01:50;;;;;;;;;97.25;81.00;5.20;46.40;;;;;;4920739;29;8787;-72
2022/03/04 06:04:17;;;;;;;;;88.00;70.00;5.40;45.80;;;;;;4920482;29;8838;-70
2022/03/04 06:06:43;;;;;;;;;96.00;72.75;5.20;46.40;;;;;;4917133;29;8864;-70
2022/03/04 06:09:09;;;;;;;;;98.00;79.50;5.00;46.60;;;;;;4920225;29;8831;-71
2022/03/04 06:11:35;;;;;;;;;97.50;84.25;4.90;46.60;;;;;;4920323;29;8838;-71
2022/03/04 06:14:01;;;;;;;;;98.50;81.25;4.90;47.10;;;;;;4920132;29;8811;-71
2022/03/04 06:16:27;;;;;;;;;92.25;70.50;5.00;46.60;;;;;;4920163;29;8787;-69
2022/03/04 06:18:54;;;;;;;;;92.25;71.25;5.10;46.10;;;;;;4920181;29;8783;-71
2022/03/04 06:21:20;;;;;;;;;97.75;80.00;5.00;46.50;;;;;;4920415;29;8775;-70
2022/03/04 06:23:46;;;;;;;;;96.25;78.25;4.90;46.40;;;;;;4920139;29;8803;-70
2022/03/04 06:26:11;;;;;;;;;101.00;83.50;4.80;46.20;;;;;;4903388;29;8787;-70
2022/03/04 06:28:37;;;;;;;;;87.50;70.25;5.20;45.50;;;;;;4919974;29;8807;-69
2022/03/04 06:31:03;;;;;;;;;86.50;68.00;5.20;45.60;;;;;;4920012;29;8886;-71
2022/03/04 06:33:32;;;;;;;;;85.75;69.00;4.80;45.80;;;;;;4919998;29;8875;-70
2022/03/04 06:36:10;;;;;;;;;87.00;68.00;4.90;45.90;;;;;;4903962;29;8779;-70
2022/03/04 06:38:38;;;;;;;;;84.25;65.75;5.00;45.90;;;;;;4919942;29;8796;-69
2022/03/04 06:41:05;;;;;;;;;95.00;75.00;5.00;45.80;;;;;;4919780;29;8791;-70
2022/03/04 06:43:31;;;;;;;;;93.75;72.50;5.00;46.60;;;;;;4919729;29;8869;-70
2022/03/04 06:45:57;;;;;;;;;69.75;55.75;5.00;45.70;;;;;;4919847;29;8759;-70
2022/03/04 06:48:23;;;;;;;;;86.75;68.00;4.50;46.70;;;;;;4919836;29;8795;-70
2022/03/04 06:50:50;;;;;;;;;87.25;67.25;4.70;46.00;;;;;;4919761;29;8764;-71
2022/03/04 06:53:17;;;;;;;;;83.50;67.25;4.80;46.70;;;;;;4919920;29;8818;-72
2022/03/04 06:55:43;;;;;;;;;80.50;63.50;5.10;46.00;;;;;;4919619;29;8806;-70
2022/03/04 06:58:09;;;;;;;;;72.50;57.50;5.10;46.00;;;;;;4919559;29;8795;-70
2022/03/04 07:00:35;;;;;;;;;85.75;65.00;5.20;46.40;;;;;;4918662;29;8798;-71
2022/03/04 07:03:02;;;;;;;;;84.75;69.75;5.20;45.60;;;;;;4919565;29;8803;-72
2022/03/04 07:05:28;;;;;;;;;90.25;70.25;5.00;45.70;;;;;;4919494;29;8775;-72
2022/03/04 07:07:54;;;;;;;;;87.25;68.75;5.00;46.20;;;;;;4918993;29;8811;-68
2022/03/04 07:10:21;;;;;;;;;89.75;72.00;5.00;46.20;;;;;;4919395;29;8775;-71
2022/03/04 07:12:47;;;;;;;;;82.75;68.00;5.00;45.40;;;;;;4919330;29;8764;-71
2022/03/04 07:15:14;;;;;;;;;96.75;75.25;5.00;46.40;;;;;;4919196;29;8831;-72
2022/03/04 07:17:40;;;;;;;;;85.50;67.25;5.10;46.50;;;;;;4919466;29;8787;-69
2022/03/04 07:20:08;;;;;;;;;83.25;65.50;5.00;45.90;;;;;;4919426;29;8862;-71
2022/03/04 07:22:35;;;;;;;;;79.00;62.75;5.00;46.00;;;;;;4919165;29;8783;-70
2022/03/04 07:25:06;;;;;;;;;82.00;65.00;5.20;45.70;;;;;;4919148;29;8787;-71
2022/03/04 07:27:35;;;;;;;;;85.50;67.50;5.00;45.20;;;;;;4918903;29;8807;-71
2022/03/04 07:30:03;;;;;;;;;79.25;62.00;5.10;45.40;;;;;;4919260;29;8776;-70
2022/03/04 07:32:29;;;;;;;;;74.00;60.00;5.40;45.30;;;;;;4918966;29;8787;-71
2022/03/04 07:34:55;;;;;;;;;75.00;61.00;5.80;44.60;;;;;;4919164;29;8794;-71
2022/03/04 07:37:20;;;;;;;;;80.75;63.75;6.10;43.80;;;;;;4918896;29;8772;-71
2022/03/04 07:39:46;;;;;;;;;79.50;61.00;5.90;43.30;;;;;;4919153;29;8803;-71
2022/03/04 07:42:13;;;;;;;;;81.25;63.25;5.80;43.30;;;;;;4918842;29;8941;-70
2022/03/04 07:44:39;;;;;;;;;82.75;66.25;5.70;44.30;;;;;;4918978;29;8932;-71
2022/03/04 07:47:05;;;;;;;;;77.50;61.25;6.20;44.00;;;;;;4918437;29;8829;-71
2022/03/04 07:49:31;;;;;;;;;76.00;60.25;6.00;43.70;;;;;;4918782;29;8799;-69
2022/03/04 07:51:56;;;;;;;;;79.50;63.25;5.80;44.90;;;;;;4918827;29;9470;-71
2022/03/04 07:54:22;;;;;;;;;81.75;62.25;6.10;44.30;;;;;;4918652;29;9486;-70
2022/03/04 07:56:48;;;;;;;;;80.75;62.75;5.90;43.40;;;;;;4918504;29;9456;-70
2022/03/04 07:59:14;;;;;;;;;83.75;62.75;5.90;44.20;;;;;;4918721;29;8854;-70
2022/03/04 08:01:40;;;;;;;;;73.75;57.25;6.10;44.30;;;;;;4918345;29;8784;-72
2022/03/04 08:04:06;;;;;;;;;81.00;65.00;5.50;44.40;;;;;;4918680;29;8796;-67
2022/03/04 08:06:32;;;;;;;;;80.25;63.50;5.20;46.10;;;;;;4918306;29;8842;-68
2022/03/04 08:08:58;;;;;;;;;79.25;64.50;5.50;46.20;;;;;;4918255;29;8850;-69
2022/03/04 08:11:24;;;;;;;;;84.25;64.25;5.60;46.00;;;;;;4917820;29;8800;-69
2022/03/04 08:13:49;;;;;;;;;82.25;65.50;5.80;45.60;;;;;;4918215;29;8818;-64
2022/03/04 08:16:15;;;;;;;;;73.75;60.50;5.90;44.70;;;;;;4918247;29;9218;-64
2022/03/04 08:18:41;;;;;;;;;75.75;60.00;5.80;45.00;;;;;;4918229;29;8895;-64
2022/03/04 08:21:08;;;;;;;;;84.50;64.25;5.60;45.70;;;;;;4917093;29;8891;-64
2022/03/04 08:23:33;;;;;;;;;80.75;63.50;5.50;45.70;;;;;;4918022;29;8834;-64
2022/03/04 08:26:03;;;;;;;;;70.50;57.25;5.40;45.80;;;;;;4918113;29;8767;-65
2022/03/04 08:28:30;;;;;;;;;77.50;61.25;5.50;45.80;;;;;;4917973;29;8815;-75
2022/03/04 08:30:56;;;;;;;;;77.00;62.25;5.90;44.90;;;;;;4918023;29;8962;-69
2022/03/04 08:33:23;;;;;;;;;79.75;62.75;6.10;45.50;;;;;;4907098;29;9797;-67
2022/03/04 08:35:49;;;;;;;;;79.00;61.50;5.70;44.60;;;;;;4911410;29;8824;-65
2022/03/04 08:38:15;;;;;;;;;81.75;63.00;6.00;45.40;;;;;;4918050;29;8791;-66
2022/03/04 08:40:40;;;;;;;;;81.50;63.00;6.10;47.50;;;;;;4917927;29;9471;-67
2022/03/04 08:43:06;;;;;;;;;84.75;67.75;6.20;46.70;;;;;;4917975;29;8787;-67
2022/03/04 08:45:34;;;;;;;;;76.00;60.25;6.60;46.00;;;;;;4918126;29;8823;-67
2022/03/04 08:47:59;;;;;;;;;83.00;65.00;6.60;42.70;;;;;;4917704;29;8831;-66
2022/03/04 08:50:25;;;;;;;;;87.00;70.75;6.20;43.30;;;;;;4917751;29;8779;-66
2022/03/04 08:52:51;;;;;;;;;77.25;63.00;6.30;44.30;;;;;;4917736;29;8796;-67
2022/03/04 08:55:17;;;;;;;;;85.25;64.50;6.50;44.00;;;;;;4918089;29;8810;-66
2022/03/04 08:57:47;;;;;;;;;81.75;64.50;6.00;45.10;;;;;;4918143;29;8796;-66
2022/03/04 09:00:15;;;;;;;;;82.50;64.50;6.30;45.00;;;;;;4917934;29;8798;-66
2022/03/04 09:02:41;;;;;;;;;75.00;62.00;6.30;44.80;;;;;;4917809;29;8910;-66
2022/03/04 09:05:07;;;;;;;;;75.00;60.25;6.30;44.20;;;;;;4917831;29;8902;-67
2022/03/04 09:07:33;;;;;;;;;72.75;59.75;6.50;44.00;;;;;;4917468;29;8819;-67
2022/03/04 09:09:59;;;;;;;;;77.50;61.00;6.60;42.30;;;;;;4918014;29;8922;-69
2022/03/04 09:12:25;;;;;;;;;74.25;59.75;6.70;42.00;;;;;;4917831;29;8791;-66
2022/03/04 09:14:51;;;;;;;;;77.00;60.25;6.60;42.70;;;;;;4917942;29;8830;-66
2022/03/04 09:17:17;;;;;;;;;78.25;61.75;6.20;43.40;;;;;;4917661;29;8807;-64
2022/03/04 09:19:43;;;;;;;;;77.75;63.00;6.30;43.80;;;;;;4917710;29;8775;-67
2022/03/04 09:22:10;;;;;;;;;78.25;61.00;6.40;44.80;;;;;;4917675;29;8771;-66
2022/03/04 09:24:35;;;;;;;;;76.50;58.25;6.70;45.40;;;;;;4920918;29;8780;-66
2022/03/04 09:27:01;;;;;;;;;75.25;59.75;6.80;43.60;;;;;;4921372;29;8842;-67
2022/03/04 09:29:27;;;;;;;;;76.50;61.00;6.90;43.10;;;;;;4921188;29;8791;-67
2022/03/04 09:31:53;;;;;;;;;82.75;62.50;6.90;43.40;;;;;;4920992;29;8798;-67
2022/03/04 09:34:19;;;;;;;;;80.50;64.00;7.30;43.00;;;;;;4921074;29;8759;-66
2022/03/04 09:36:45;;;;;;;;;77.00;61.00;7.40;41.90;;;;;;4921226;29;8810;-67
2022/03/04 09:39:11;;;;;;;;;68.50;56.75;7.50;41.50;;;;;;4921044;29;8787;-66
2022/03/04 09:41:40;;;;;;;;;73.75;59.00;7.20;39.20;;;;;;4921160;29;8906;-67
2022/03/04 09:44:08;;;;;;;;;77.00;61.25;7.20;39.50;;;;;;4921032;29;8827;-66
2022/03/04 09:46:33;;;;;;;;;70.50;58.00;7.40;41.00;;;;;;4920885;29;8788;-66
2022/03/04 09:48:59;;;;;;;;;67.25;53.00;7.30;41.00;;;;;;4920669;29;8791;-67
2022/03/04 09:51:25;;;;;;;;;74.25;60.25;7.00;40.70;;;;;;4920901;29;8809;-67
2022/03/04 09:53:52;;;;;;;;;74.00;60.00;7.50;41.00;;;;;;4919883;29;8804;-69
2022/03/04 09:56:20;;;;;;;;;66.25;54.25;7.70;40.30;;;;;;4920644;29;8901;-68
2022/03/04 09:58:49;;;;;;;;;58.75;45.75;7.60;40.00;;;;;;4921057;29;8858;-69
2022/03/04 10:01:15;;;;;;;;;65.75;55.00;7.60;39.80;;;;;;4920876;29;8814;-69
2022/03/04 10:03:47;;;;;;;;;63.75;50.00;7.50;39.70;;;;;;4920604;29;8767;-68
2022/03/04 10:06:13;;;;;;;;;72.75;55.50;8.00;39.20;;;;;;4920817;29;8806;-65
2022/03/04 10:08:42;;;;;;;;;67.25;54.25;7.90;38.40;;;;;;4919146;29;9463;-69
2022/03/04 10:11:08;;;;;;;;;65.25;51.25;7.90;39.30;;;;;;4916343;29;9405;-65
2022/03/04 10:13:52;;;;;;;;;76.50;61.50;7.80;38.90;;;;;;4919204;29;8809;-68
2022/03/04 10:16:38;;;;;;;;;72.00;57.75;8.40;38.00;;;;;;4918136;29;8782;-69
2022/03/04 10:19:16;;;;;;;;;68.00;55.50;9.00;37.60;;;;;;4917618;29;8774;-68
2022/03/04 10:21:54;;;;;;;;;71.25;57.75;9.20;36.70;;;;;;4915761;29;8802;-70
2022/03/04 10:24:35;;;;;;;;;73.00;57.75;8.70;36.00;;;;;;4916030;29;8781;-68
2022/03/04 10:27:08;;;;;;;;;69.25;55.00;8.60;37.40;;;;;;4917564;29;8812;-69
2022/03/04 10:29:37;;;;;;;;;68.25;54.25;9.40;37.30;;;;;;4916710;29;8886;-69
2022/03/04 10:32:14;;;;;;;;;62.25;50.00;9.80;36.10;;;;;;4919022;29;8901;-68
2022/03/04 10:34:51;;;;;;;;;70.25;56.00;9.80;34.70;;;;;;4916065;29;8782;-73
2022/03/04 10:37:21;;;;;;;;;68.25;54.50;9.70;35.20;;;;;;4923621;29;8943;-74
2022/03/04 10:40:02;;;;;;;;;71.75;56.75;10.30;35.20;;;;;;4918614;29;8810;-76
2022/03/04 10:42:51;;;;;;;;;64.00;52.75;10.50;35.50;;;;;;4920246;29;8755;-67
2022/03/04 10:45:25;;;;;;;;;65.00;52.00;10.80;33.30;;;;;;4893891;29;8872;-69
2022/03/04 10:48:12;;;;;;;;;68.00;54.75;11.30;32.40;;;;;;4900983;29;9527;-70
2022/03/04 10:50:42;;;;;;;;;64.00;52.25;11.10;31.20;;;;;;4900824;29;8828;-72
2022/03/04 10:53:13;;;;;;;;;64.00;51.25;10.60;32.40;;;;;;4899258;29;8843;-70
2022/03/04 10:55:46;;;;;;;;;67.00;53.00;11.80;32.70;;;;;;4919576;29;8901;-73
2022/03/04 10:58:16;;;;;;;;;60.75;46.25;12.40;31.20;;;;;;4919680;29;8787;-71
2022/03/04 11:00:50;;;;;;;;;63.50;51.75;12.60;30.60;;;;;;4920029;29;9426;-70
2022/03/04 11:03:18;;;;;;;;;66.50;51.75;12.50;30.20;;;;;;4919527;29;8791;-71
2022/03/04 11:05:43;;;;;;;;;65.00;52.50;12.20;30.30;;;;;;4919315;29;8787;-73
2022/03/04 11:08:10;;;;;;;;;68.50;54.25;12.10;30.80;;;;;;4919491;29;8934;-66
2022/03/04 11:10:36;;;;;;;;;62.00;50.25;15.60;28.30;;;;;;4919605;29;8803;-67
2022/03/04 11:13:07;;;;;;;;;60.75;49.75;21.10;23.80;;;;;;4919451;29;8886;-75
2022/03/04 11:15:34;;;;;;;;;64.75;52.50;24.50;19.90;;;;;;4919060;29;8817;-67
2022/03/04 11:18:14;;;;;;;;;61.50;50.00;25.50;19.10;;;;;;4918799;29;8870;-73
2022/03/04 11:20:42;;;;;;;;;62.00;51.00;26.60;17.10;;;;;;4919330;29;8764;-72
2022/03/04 11:23:10;;;;;;;;;59.25;48.00;27.10;17.10;;;;;;4919253;29;8787;-66
2022/03/04 11:25:41;;;;;;;;;58.75;49.25;29.70;16.60;;;;;;4919419;29;8795;-67
2022/03/04 11:28:12;;;;;;;;;57.50;48.50;30.20;15.20;;;;;;4919241;29;8853;-65
2022/03/04 11:30:46;;;;;;;;;58.50;49.00;30.10;15.10;;;;;;4918532;29;8874;-66
2022/03/04 11:33:18;;;;;;;;;59.50;49.50;29.10;15.30;;;;;;4918705;29;8776;-67
2022/03/04 11:35:59;;;;;;;;;58.00;48.00;29.50;14.80;;;;;;4918781;29;8898;-67
2022/03/04 11:38:58;;;;;;;;;53.00;45.00;27.50;15.30;;;;;;4918564;29;8775;-65
2022/03/04 11:41:34;;;;;;;;;51.33;44.00;26.50;16.30;;;;;;4897490;29;8806;-65
2022/03/04 11:44:18;;;;;;;;;54.33;45.67;29.60;15.40;;;;;;4918786;29;8811;-65
2022/03/04 11:46:49;;;;;;;;;47.33;40.33;29.30;15.10;;;;;;4918289;29;8827;-65
2022/03/04 11:49:38;;;;;;;;;52.33;45.00;30.30;14.10;;;;;;4919051;29;8886;-66
2022/03/04 11:52:15;;;;;;;;;57.00;47.33;31.90;13.50;;;;;;4918688;29;8852;-65
2022/03/04 11:54:51;;;;;;;;;53.33;45.33;31.30;13.60;;;;;;4918862;29;8871;-65
2022/03/04 11:57:27;;;;;;;;;54.67;46.33;33.90;13.50;;;;;;4918506;29;8795;-62
2022/03/04 12:00:20;;;;;;;;;54.33;46.00;35.20;12.50;;;;;;4918740;29;8787;-61
2022/03/04 12:02:47;;;;;;;;;50.33;43.00;34.50;12.10;;;;;;4918214;29;8821;-62
2022/03/04 12:05:19;;;;;;;;;45.67;39.00;33.10;12.50;;;;;;4918714;29;8870;-62
2022/03/04 12:07:47;;;;;;;;;50.00;43.00;33.40;12.20;;;;;;4918099;29;8815;-59
2022/03/04 12:10:15;;;;;;;;;46.00;39.67;33.50;11.80;;;;;;4918664;29;8806;-60
2022/03/04 12:12:59;;;;;;;;;50.00;42.33;32.40;12.00;;;;;;4918296;29;9473;-60
2022/03/04 12:15:24;;;;;;;;;43.00;37.00;32.70;13.10;;;;;;4918698;29;8827;-60
2022/03/04 12:17:59;;;;;;;;;46.33;40.33;34.20;11.60;;;;;;4918484;29;8775;-60
2022/03/04 12:20:31;;;;;;;;;43.00;37.67;36.00;11.30;;;;;;4918268;29;8767;-60
2022/03/04 12:23:08;;;;;;;;;41.67;36.67;33.70;10.80;;;;;;4918236;29;8795;-59
2022/03/04 12:25:55;;;;;;;;;44.33;38.33;31.20;11.80;;;;;;4918005;29;8775;-62
2022/03/04 12:28:21;;;;;;;;;48.00;41.33;31.40;11.70;;;;;;4918031;29;8902;-62
2022/03/04 12:31:07;;;;;;;;;46.00;40.00;31.70;12.30;;;;;;4918094;29;8786;-62
2022/03/04 12:33:46;;;;;;;;;37.33;34.00;33.20;11.90;;;;;;4917924;29;8869;-62
2022/03/04 12:36:15;;;;;;;;;39.33;35.33;31.20;12.10;;;;;;4918370;29;8909;-62
2022/03/04 12:38:48;;;;;;;;;49.67;42.00;30.60;12.50;;;;;;4918257;29;8775;-59
2022/03/04 12:41:18;;;;;;;;;47.67;40.67;31.20;12.60;;;;;;4918109;29;8795;-61
2022/03/04 12:43:55;;;;;;;;;48.00;41.00;28.90;13.00;;;;;;4918128;29;8815;-61
2022/03/04 12:46:28;;;;;;;;;42.33;37.33;29.80;13.10;;;;;;4918119;29;8776;-61